Time;durP1;ratioP1;P1;durP2;ratioP2;P2;SDS_P1;SDS_P2;PMS_P1;PMS_P2;Temp;Humidity;BMP_temperature;BMP_pressure;BME280_temperature;BME280_humidity;BME280_pressure;Samples;Min_cycle;Max_cycle;Signal;HPM_P1;HPM_P2
2024/01/03 00:02:11;;;;;;;0.30;0.20;;;;;;;;;;5029831;28;20493;-68
2024/01/03 00:04:37;;;;;;;0.50;0.30;;;;;;;;;;5024609;28;20254;-68
2024/01/03 00:07:02;;;;;;;1.58;0.43;;;;;;;;;;5024288;28;20100;-69
2024/01/03 00:09:27;;;;;;;0.85;0.50;;;;;;;;;;5026873;28;20167;-69
2024/01/03 00:11:53;;;;;;;1.93;0.80;;;;;;;;;;5025568;28;20071;-69
2024/01/03 00:14:21;;;;;;;4.05;0.80;;;;;;;;;;5028744;28;20274;-69
2024/01/03 00:16:46;;;;;;;0.68;0.63;;;;;;;;;;5037427;28;20068;-69
2024/01/03 00:19:14;;;;;;;5.13;1.17;;;;;;;;;;5023114;28;20064;-69
2024/01/03 00:21:39;;;;;;;4.82;0.80;;;;;;;;;;5038240;28;20792;-68
2024/01/03 00:24:05;;;;;;;5.90;1.17;;;;;;;;;;5023290;28;20017;-69
2024/01/03 00:26:32;;;;;;;2.88;0.80;;;;;;;;;;5022678;28;20260;-69
2024/01/03 00:28:58;;;;;;;5.07;1.05;;;;;;;;;;5024173;28;20025;-69
2024/01/03 00:31:23;;;;;;;6.28;1.13;;;;;;;;;;5023933;28;20025;-69
2024/01/03 00:33:49;;;;;;;4.18;0.82;;;;;;;;;;5030261;28;20057;-69
2024/01/03 00:36:15;;;;;;;4.37;0.90;;;;;;;;;;5027339;28;20029;-69
2024/01/03 00:38:42;;;;;;;3.47;0.88;;;;;;;;;;5028846;28;20766;-69
2024/01/03 00:41:09;;;;;;;3.85;1.17;;;;;;;;;;5012599;28;20029;-69
2024/01/03 00:43:35;;;;;;;2.78;1.00;;;;;;;;;;5029280;28;20037;-69
2024/01/03 00:46:00;;;;;;;3.50;1.00;;;;;;;;;;5029983;28;20021;-69
2024/01/03 00:48:26;;;;;;;4.20;0.80;;;;;;;;;;5020687;28;20430;-69
2024/01/03 00:50:51;;;;;;;5.03;1.33;;;;;;;;;;5024374;28;20017;-69
2024/01/03 00:53:16;;;;;;;4.95;1.17;;;;;;;;;;5029649;28;20026;-69
2024/01/03 00:55:42;;;;;;;4.43;0.90;;;;;;;;;;5026465;28;20113;-69
2024/01/03 00:58:07;;;;;;;5.05;1.00;;;;;;;;;;5029395;28;20180;-69
2024/01/03 01:00:32;;;;;;;4.00;1.17;;;;;;;;;;5029999;28;20389;-69
2024/01/03 01:02:58;;;;;;;5.27;1.10;;;;;;;;;;5029227;28;20033;-69
2024/01/03 01:05:23;;;;;;;7.82;1.10;;;;;;;;;;5029062;28;20282;-69
2024/01/03 01:07:49;;;;;;;10.50;1.05;;;;;;;;;;5027802;28;20545;-69
2024/01/03 01:10:14;;;;;;;6.07;1.57;;;;;;;;;;5027856;28;20024;-69
2024/01/03 01:12:39;;;;;;;2.13;0.93;;;;;;;;;;5029591;28;21838;-69
2024/01/03 01:15:04;;;;;;;7.63;1.57;;;;;;;;;;5033738;28;20271;-69
2024/01/03 01:17:30;;;;;;;7.70;1.25;;;;;;;;;;5031953;28;20286;-69
2024/01/03 01:19:55;;;;;;;2.70;0.98;;;;;;;;;;5034544;28;20021;-69
2024/01/03 01:22:21;;;;;;;4.80;1.47;;;;;;;;;;5030165;28;20485;-69
2024/01/03 01:24:46;;;;;;;3.83;1.25;;;;;;;;;;5030868;28;20035;-69
2024/01/03 01:27:11;;;;;;;5.90;1.15;;;;;;;;;;5033791;28;20079;-69
2024/01/03 01:29:36;;;;;;;3.85;1.30;;;;;;;;;;5028868;28;20466;-69
2024/01/03 01:32:02;;;;;;;2.13;1.17;;;;;;;;;;5030118;28;20026;-68
2024/01/03 01:34:27;;;;;;;5.28;1.48;;;;;;;;;;5033696;28;20356;-69
2024/01/03 01:36:53;;;;;;;5.45;1.30;;;;;;;;;;5028385;28;20117;-69
2024/01/03 01:39:18;;;;;;;1.98;0.98;;;;;;;;;;5029657;28;20041;-69
2024/01/03 01:41:43;;;;;;;9.10;1.30;;;;;;;;;;5033886;28;20504;-69
2024/01/03 01:44:08;;;;;;;3.20;1.23;;;;;;;;;;5041441;28;20317;-69
2024/01/03 01:46:36;;;;;;;8.07;1.33;;;;;;;;;;5036084;28;20756;-69
2024/01/03 01:49:01;;;;;;;3.45;1.30;;;;;;;;;;5038055;28;20021;-69
2024/01/03 01:51:27;;;;;;;5.23;1.40;;;;;;;;;;5030817;28;20075;-69
2024/01/03 01:53:52;;;;;;;4.35;1.35;;;;;;;;;;5029830;28;20267;-69
2024/01/03 01:56:19;;;;;;;7.72;1.08;;;;;;;;;;5023606;28;20068;-69
2024/01/03 01:58:44;;;;;;;5.63;1.30;;;;;;;;;;5035845;28;20363;-68
2024/01/03 02:01:09;;;;;;;6.35;1.27;;;;;;;;;;5020285;28;20029;-68
2024/01/03 02:03:35;;;;;;;3.65;1.05;;;;;;;;;;5030259;28;20022;-69
2024/01/03 02:06:00;;;;;;;4.70;1.20;;;;;;;;;;5027825;28;20020;-69
2024/01/03 02:08:26;;;;;;;8.52;1.42;;;;;;;;;;5027621;28;20493;-69
2024/01/03 02:10:51;;;;;;;7.40;1.17;;;;;;;;;;5031924;28;20032;-69
2024/01/03 02:13:16;;;;;;;7.88;1.42;;;;;;;;;;5030514;28;20034;-69
2024/01/03 02:15:42;;;;;;;8.85;1.33;;;;;;;;;;5031691;28;20100;-69
2024/01/03 02:18:07;;;;;;;5.40;1.07;;;;;;;;;;5030867;28;20025;-68
2024/01/03 02:20:33;;;;;;;6.07;1.20;;;;;;;;;;5025995;28;20277;-69
2024/01/03 02:22:59;;;;;;;2.97;1.42;;;;;;;;;;5030780;28;20108;-68
2024/01/03 02:25:24;;;;;;;4.15;1.20;;;;;;;;;;5028591;28;20027;-68
2024/01/03 02:27:50;;;;;;;6.90;1.30;;;;;;;;;;5032618;28;20466;-69
2024/01/03 02:30:15;;;;;;;2.90;1.10;;;;;;;;;;5032739;28;20592;-69
2024/01/03 02:32:40;;;;;;;6.57;1.17;;;;;;;;;;5031113;28;20100;-69
2024/01/03 02:35:06;;;;;;;3.90;0.90;;;;;;;;;;5032004;28;20298;-69
2024/01/03 02:37:31;;;;;;;7.05;1.20;;;;;;;;;;5032049;28;20108;-68
2024/01/03 02:39:56;;;;;;;6.30;1.30;;;;;;;;;;5031715;28;20513;-69
2024/01/03 02:42:22;;;;;;;6.70;1.07;;;;;;;;;;5031913;28;20087;-69
2024/01/03 02:44:47;;;;;;;4.83;0.90;;;;;;;;;;5032415;28;20330;-67
2024/01/03 02:47:12;;;;;;;3.37;1.27;;;;;;;;;;5023064;28;20342;-69
2024/01/03 02:49:37;;;;;;;4.63;0.95;;;;;;;;;;5022788;28;20684;-69
2024/01/03 02:52:03;;;;;;;2.23;0.87;;;;;;;;;;5030435;28;20020;-69
2024/01/03 02:54:28;;;;;;;8.98;1.38;;;;;;;;;;5026671;28;20274;-69
2024/01/03 02:56:57;;;;;;;6.15;1.30;;;;;;;;;;5028760;28;20029;-69
2024/01/03 02:59:24;;;;;;;7.35;1.60;;;;;;;;;;5024795;28;20025;-69
2024/01/03 03:01:49;;;;;;;5.55;1.00;;;;;;;;;;5031715;28;20056;-69
2024/01/03 03:04:14;;;;;;;9.45;1.08;;;;;;;;;;5031017;28;20072;-69
2024/01/03 03:06:40;;;;;;;12.07;1.58;;;;;;;;;;5031865;28;20028;-69
2024/01/03 03:09:05;;;;;;;2.80;1.20;;;;;;;;;;5031104;28;20374;-69
2024/01/03 03:11:30;;;;;;;4.27;1.13;;;;;;;;;;5031518;28;20270;-69
2024/01/03 03:13:55;;;;;;;7.23;1.60;;;;;;;;;;5031874;28;20118;-69
2024/01/03 03:16:20;;;;;;;6.37;1.13;;;;;;;;;;5026473;28;20295;-69
2024/01/03 03:18:46;;;;;;;5.43;1.53;;;;;;;;;;5032561;28;20323;-68
2024/01/03 03:21:11;;;;;;;8.05;1.85;;;;;;;;;;5028437;28;20289;-69
2024/01/03 03:23:36;;;;;;;3.83;1.03;;;;;;;;;;5031726;28;20359;-67
2024/01/03 03:26:03;;;;;;;5.80;1.15;;;;;;;;;;5030675;28;20265;-69
2024/01/03 03:28:30;;;;;;;3.58;1.08;;;;;;;;;;5030568;28;20028;-69
2024/01/03 03:30:55;;;;;;;5.43;1.38;;;;;;;;;;5031360;28;20105;-69
2024/01/03 03:33:20;;;;;;;6.43;1.30;;;;;;;;;;5022082;28;20468;-69
2024/01/03 03:35:45;;;;;;;3.70;1.40;;;;;;;;;;5023715;28;20255;-69
2024/01/03 03:38:10;;;;;;;8.73;1.63;;;;;;;;;;5035952;28;20661;-69
2024/01/03 03:40:36;;;;;;;5.40;1.23;;;;;;;;;;5029213;28;20742;-69
2024/01/03 03:43:01;;;;;;;5.60;1.55;;;;;;;;;;5029573;28;20060;-69
2024/01/03 03:45:26;;;;;;;9.50;1.40;;;;;;;;;;5030246;28;20024;-69
2024/01/03 03:47:51;;;;;;;11.70;1.23;;;;;;;;;;5032447;28;20243;-69
2024/01/03 03:50:17;;;;;;;10.13;1.37;;;;;;;;;;5030041;28;20358;-69
2024/01/03 03:52:42;;;;;;;4.63;1.10;;;;;;;;;;5024727;28;20544;-69
2024/01/03 03:55:07;;;;;;;7.23;1.43;;;;;;;;;;5013261;28;20030;-69
2024/01/03 03:57:32;;;;;;;5.15;1.20;;;;;;;;;;5023503;28;20254;-69
2024/01/03 03:59:58;;;;;;;4.40;0.90;;;;;;;;;;5031495;28;20169;-70
2024/01/03 04:02:23;;;;;;;5.07;1.40;;;;;;;;;;5024623;28;20739;-69
2024/01/03 04:04:48;;;;;;;6.25;1.20;;;;;;;;;;5024093;28;20057;-69
2024/01/03 04:07:14;;;;;;;8.38;1.55;;;;;;;;;;5032215;28;20022;-69
2024/01/03 04:09:42;;;;;;;6.70;1.33;;;;;;;;;;5030575;28;20048;-69
2024/01/03 04:12:10;;;;;;;10.10;2.00;;;;;;;;;;5021301;28;20255;-69
2024/01/03 04:14:36;;;;;;;3.78;0.98;;;;;;;;;;5029396;28;20118;-68
2024/01/03 04:17:02;;;;;;;5.88;1.23;;;;;;;;;;5027579;28;20051;-69
2024/01/03 04:19:27;;;;;;;5.47;1.08;;;;;;;;;;5030778;28;20025;-69
2024/01/03 04:21:53;;;;;;;8.32;1.27;;;;;;;;;;5022545;28;20040;-69
2024/01/03 04:24:18;;;;;;;7.82;1.50;;;;;;;;;;5030329;28;20111;-69
2024/01/03 04:26:43;;;;;;;9.85;1.30;;;;;;;;;;5026053;28;20033;-69
2024/01/03 04:29:09;;;;;;;10.43;1.53;;;;;;;;;;5030507;28;20039;-69
2024/01/03 04:31:34;;;;;;;8.85;1.10;;;;;;;;;;5030227;28;20262;-69
2024/01/03 04:33:59;;;;;;;5.50;0.87;;;;;;;;;;5033906;28;20424;-69
2024/01/03 04:36:29;;;;;;;4.80;1.37;;;;;;;;;;5023966;28;20251;-65
2024/01/03 04:38:54;;;;;;;9.38;2.13;;;;;;;;;;5027885;28;20018;-65
2024/01/03 04:41:20;;;;;;;8.88;1.25;;;;;;;;;;5029876;28;20075;-65
2024/01/03 04:43:45;;;;;;;7.57;1.33;;;;;;;;;;5028923;28;20443;-65
2024/01/03 04:46:10;;;;;;;10.65;1.83;;;;;;;;;;5026701;28;20320;-65
2024/01/03 04:48:35;;;;;;;9.70;1.52;;;;;;;;;;5030599;28;20462;-65
2024/01/03 04:51:01;;;;;;;4.50;1.07;;;;;;;;;;5025084;28;20022;-65
2024/01/03 04:53:26;;;;;;;4.93;0.88;;;;;;;;;;5027349;28;20266;-65
2024/01/03 04:55:51;;;;;;;15.07;1.52;;;;;;;;;;5028759;28;20022;-65
2024/01/03 04:58:17;;;;;;;7.03;1.10;;;;;;;;;;5027598;28;20048;-65
2024/01/03 05:00:43;;;;;;;6.25;1.10;;;;;;;;;;5029073;28;20029;-65
2024/01/03 05:03:08;;;;;;;7.70;1.10;;;;;;;;;;5027546;28;20533;-65
2024/01/03 05:05:34;;;;;;;3.30;1.05;;;;;;;;;;5030068;28;20024;-65
2024/01/03 05:08:00;;;;;;;10.57;1.33;;;;;;;;;;5024645;28;20106;-65
2024/01/03 05:10:25;;;;;;;11.37;1.40;;;;;;;;;;5026016;28;20098;-65
2024/01/03 05:12:50;;;;;;;6.53;1.10;;;;;;;;;;5025046;28;20396;-65
2024/01/03 05:15:16;;;;;;;9.40;1.42;;;;;;;;;;5027452;28;20040;-65
2024/01/03 05:17:41;;;;;;;9.38;1.45;;;;;;;;;;5020488;28;20036;-64
2024/01/03 05:20:07;;;;;;;5.30;0.93;;;;;;;;;;5029372;28;20036;-65
2024/01/03 05:22:33;;;;;;;5.05;1.15;;;;;;;;;;5026267;28;20025;-65
2024/01/03 05:25:00;;;;;;;4.60;1.03;;;;;;;;;;5027581;28;20488;-65
2024/01/03 05:27:25;;;;;;;3.90;0.82;;;;;;;;;;5017844;28;20263;-65
2024/01/03 05:29:50;;;;;;;5.10;1.17;;;;;;;;;;5028424;28;20024;-65
2024/01/03 05:32:16;;;;;;;7.63;1.30;;;;;;;;;;5027433;28;20017;-65
2024/01/03 05:34:42;;;;;;;4.10;0.98;;;;;;;;;;5027476;28;20270;-65
2024/01/03 05:37:07;;;;;;;6.40;1.38;;;;;;;;;;5025573;28;20061;-65
2024/01/03 05:39:32;;;;;;;6.65;1.17;;;;;;;;;;5025149;28;20071;-65
2024/01/03 05:41:57;;;;;;;4.07;0.93;;;;;;;;;;5028255;28;20512;-65
2024/01/03 05:44:23;;;;;;;7.00;1.23;;;;;;;;;;5022605;28;20037;-65
2024/01/03 05:46:48;;;;;;;7.85;1.20;;;;;;;;;;5020518;28;20525;-69
2024/01/03 05:49:13;;;;;;;5.03;0.90;;;;;;;;;;5023900;28;20034;-69
2024/01/03 05:51:38;;;;;;;9.77;1.50;;;;;;;;;;5024480;28;20282;-69
2024/01/03 05:54:04;;;;;;;10.80;1.80;;;;;;;;;;5029860;28;20261;-69
2024/01/03 05:56:29;;;;;;;7.38;1.45;;;;;;;;;;5015545;28;20286;-69
2024/01/03 05:58:55;;;;;;;5.70;1.20;;;;;;;;;;5027868;28;20040;-69
2024/01/03 06:01:20;;;;;;;5.97;1.20;;;;;;;;;;5029977;28;20263;-69
2024/01/03 06:03:46;;;;;;;7.73;1.10;;;;;;;;;;5031679;28;20044;-70
2024/01/03 06:06:12;;;;;;;7.40;1.30;;;;;;;;;;5017660;28;20307;-69
2024/01/03 06:08:37;;;;;;;14.43;1.42;;;;;;;;;;5027307;28;20056;-69
2024/01/03 06:11:03;;;;;;;5.18;1.10;;;;;;;;;;5026571;28;20029;-70
2024/01/03 06:13:28;;;;;;;5.13;1.33;;;;;;;;;;5019660;28;20034;-69
2024/01/03 06:15:53;;;;;;;8.23;1.13;;;;;;;;;;5032278;28;20053;-68
2024/01/03 06:18:18;;;;;;;11.60;2.00;;;;;;;;;;5022269;28;20273;-70
2024/01/03 06:20:44;;;;;;;8.85;1.23;;;;;;;;;;5031578;28;20025;-69
2024/01/03 06:23:09;;;;;;;9.37;1.40;;;;;;;;;;5032593;28;20492;-69
2024/01/03 06:25:36;;;;;;;11.73;1.33;;;;;;;;;;5027175;28;20254;-69
2024/01/03 06:28:02;;;;;;;8.15;1.55;;;;;;;;;;5018279;28;20018;-69
2024/01/03 06:30:28;;;;;;;11.77;1.48;;;;;;;;;;5025426;28;20022;-69
2024/01/03 06:32:53;;;;;;;5.60;1.23;;;;;;;;;;5027076;28;20021;-69
2024/01/03 06:35:18;;;;;;;3.97;1.33;;;;;;;;;;5033938;28;20026;-69
2024/01/03 06:37:43;;;;;;;8.25;1.00;;;;;;;;;;5014759;28;20255;-69
2024/01/03 06:40:09;;;;;;;6.53;0.90;;;;;;;;;;5029546;28;20084;-69
2024/01/03 06:42:34;;;;;;;7.55;1.10;;;;;;;;;;5033610;28;20286;-69
2024/01/03 06:44:59;;;;;;;9.43;1.27;;;;;;;;;;5034086;28;20052;-69
2024/01/03 06:47:24;;;;;;;7.23;1.10;;;;;;;;;;5034041;28;20243;-69
2024/01/03 06:49:49;;;;;;;5.93;1.00;;;;;;;;;;5030496;28;20281;-69
2024/01/03 06:52:15;;;;;;;5.77;1.00;;;;;;;;;;5019687;28;20243;-69
2024/01/03 06:54:40;;;;;;;7.97;1.20;;;;;;;;;;5025837;28;20026;-69
2024/01/03 06:57:05;;;;;;;7.03;1.02;;;;;;;;;;5033227;28;20298;-69
2024/01/03 06:59:35;;;;;;;6.30;1.27;;;;;;;;;;5025941;28;20052;-69
2024/01/03 07:02:00;;;;;;;7.55;1.63;;;;;;;;;;5033426;28;20247;-69
2024/01/03 07:04:25;;;;;;;4.18;1.27;;;;;;;;;;5025058;28;20125;-69
2024/01/03 07:06:51;;;;;;;7.43;1.20;;;;;;;;;;5019588;28;20109;-69
2024/01/03 07:09:16;;;;;;;5.45;1.00;;;;;;;;;;5017640;28;20029;-69
2024/01/03 07:11:41;;;;;;;7.50;1.77;;;;;;;;;;5015107;28;20109;-70
2024/01/03 07:14:08;;;;;;;6.85;1.13;;;;;;;;;;5030804;28;20018;-69
2024/01/03 07:16:33;;;;;;;5.53;1.50;;;;;;;;;;5019129;28;20045;-69
2024/01/03 07:18:58;;;;;;;12.45;1.13;;;;;;;;;;5033197;28;20117;-69
2024/01/03 07:21:25;;;;;;;5.53;1.20;;;;;;;;;;5031463;28;20403;-69
2024/01/03 07:23:50;;;;;;;7.80;1.13;;;;;;;;;;5031878;28;20333;-69
2024/01/03 07:26:15;;;;;;;15.05;1.45;;;;;;;;;;5018003;28;20043;-69
2024/01/03 07:28:40;;;;;;;3.83;1.00;;;;;;;;;;5016189;28;20065;-69
2024/01/03 07:31:07;;;;;;;8.40;1.38;;;;;;;;;;5019991;28;20762;-69
2024/01/03 07:33:32;;;;;;;10.03;1.57;;;;;;;;;;5025999;28;20103;-69
2024/01/03 07:35:57;;;;;;;9.57;1.40;;;;;;;;;;5018135;28;20243;-69
2024/01/03 07:38:23;;;;;;;11.65;1.45;;;;;;;;;;5014606;28;20462;-69
2024/01/03 07:40:48;;;;;;;7.80;1.60;;;;;;;;;;5021582;28;20106;-68
2024/01/03 07:43:13;;;;;;;8.30;1.30;;;;;;;;;;5021979;28;20313;-69
2024/01/03 07:45:38;;;;;;;6.27;1.60;;;;;;;;;;5033331;28;20242;-69
2024/01/03 07:48:04;;;;;;;5.07;1.13;;;;;;;;;;5019258;28;20250;-69
2024/01/03 07:50:29;;;;;;;12.48;1.40;;;;;;;;;;5013409;28;20093;-69
2024/01/03 07:52:55;;;;;;;7.10;2.00;;;;;;;;;;5013298;28;20018;-69
2024/01/03 07:55:20;;;;;;;7.80;1.35;;;;;;;;;;5013596;28;20386;-68
2024/01/03 07:57:45;;;;;;;6.35;1.05;;;;;;;;;;5025574;28;20563;-69
2024/01/03 08:00:11;;;;;;;10.10;1.77;;;;;;;;;;5013186;28;20057;-69
2024/01/03 08:02:36;;;;;;;9.55;1.23;;;;;;;;;;5020257;28;20691;-69
2024/01/03 08:05:03;;;;;;;8.90;1.33;;;;;;;;;;5030993;28;20029;-69
2024/01/03 08:07:28;;;;;;;5.25;1.65;;;;;;;;;;5022266;28;20255;-78
2024/01/03 08:09:53;;;;;;;11.10;1.67;;;;;;;;;;5032114;28;20067;-64
2024/01/03 08:12:18;;;;;;;3.40;0.97;;;;;;;;;;5032726;28;20064;-64
2024/01/03 08:14:44;;;;;;;8.23;1.23;;;;;;;;;;5032659;28;20426;-64
2024/01/03 08:17:09;;;;;;;8.43;1.13;;;;;;;;;;5032573;28;20333;-64
2024/01/03 08:19:34;;;;;;;7.30;1.30;;;;;;;;;;5032813;28;20731;-64
2024/01/03 08:22:00;;;;;;;5.77;1.10;;;;;;;;;;5025967;28;20100;-64
2024/01/03 08:24:26;;;;;;;7.00;1.25;;;;;;;;;;5012745;28;20345;-64
2024/01/03 08:26:51;;;;;;;8.20;1.02;;;;;;;;;;5012833;28;20145;-64
2024/01/03 08:29:16;;;;;;;12.43;1.30;;;;;;;;;;5012780;28;20018;-64
2024/01/03 08:31:42;;;;;;;8.30;1.13;;;;;;;;;;5012777;28;20046;-64
2024/01/03 08:34:07;;;;;;;6.90;1.03;;;;;;;;;;5012804;28;20687;-64
2024/01/03 08:36:39;;;;;;;8.35;1.25;;;;;;;;;;5012768;28;20317;-64
2024/01/03 08:39:05;;;;;;;3.35;0.90;;;;;;;;;;5012574;28;20034;-64
2024/01/03 08:41:30;;;;;;;5.32;0.80;;;;;;;;;;5012605;28;20022;-64
2024/01/03 08:43:55;;;;;;;7.73;1.57;;;;;;;;;;5012533;28;20037;-64
2024/01/03 08:46:20;;;;;;;5.70;1.23;;;;;;;;;;5012534;28;20089;-64
2024/01/03 08:48:45;;;;;;;6.43;1.23;;;;;;;;;;5012865;28;20250;-64
2024/01/03 08:51:16;;;;;;;2.77;0.93;;;;;;;;;;5012666;28;20026;-64
2024/01/03 08:53:41;;;;;;;2.80;0.88;;;;;;;;;;5012505;28;20198;-64
2024/01/03 08:56:16;;;;;;;6.32;1.27;;;;;;;;;;5012462;28;20126;-64
2024/01/03 08:58:41;;;;;;;4.88;0.90;;;;;;;;;;5012460;28;20025;-64
2024/01/03 09:01:07;;;;;;;6.68;0.98;;;;;;;;;;5012448;28;20026;-64
2024/01/03 09:03:34;;;;;;;5.43;1.00;;;;;;;;;;5018881;28;20026;-64
2024/01/03 09:06:02;;;;;;;4.15;0.95;;;;;;;;;;5032166;28;20014;-64
2024/01/03 09:08:27;;;;;;;9.85;1.23;;;;;;;;;;5032071;28;20152;-64
2024/01/03 09:10:52;;;;;;;5.43;0.90;;;;;;;;;;5032053;28;20101;-64
2024/01/03 09:13:17;;;;;;;8.00;1.30;;;;;;;;;;5031629;28;20348;-64
2024/01/03 09:15:43;;;;;;;3.57;1.07;;;;;;;;;;5029780;28;20885;-64
2024/01/03 09:18:08;;;;;;;5.95;1.42;;;;;;;;;;5030283;28;20300;-64
2024/01/03 09:20:33;;;;;;;4.47;1.00;;;;;;;;;;5032504;28;20040;-64
2024/01/03 09:22:58;;;;;;;3.90;1.07;;;;;;;;;;5032947;28;20873;-64
2024/01/03 09:25:24;;;;;;;3.70;0.87;;;;;;;;;;5032776;28;20606;-64
2024/01/03 09:27:49;;;;;;;6.90;1.40;;;;;;;;;;5032979;28;20733;-64
2024/01/03 09:30:14;;;;;;;5.37;1.00;;;;;;;;;;5032905;28;20020;-64
2024/01/03 09:32:41;;;;;;;8.40;0.98;;;;;;;;;;5034229;28;20239;-64
2024/01/03 09:35:06;;;;;;;6.60;1.17;;;;;;;;;;5036667;28;20017;-64
2024/01/03 09:37:32;;;;;;;5.63;0.80;;;;;;;;;;5036697;28;20036;-64
2024/01/03 09:39:57;;;;;;;3.80;0.85;;;;;;;;;;5034016;28;20035;-65
2024/01/03 09:42:22;;;;;;;4.57;0.97;;;;;;;;;;5034460;28;20053;-64
2024/01/03 09:44:48;;;;;;;4.43;0.90;;;;;;;;;;5033829;28;20357;-64
2024/01/03 09:47:13;;;;;;;5.40;0.73;;;;;;;;;;5033930;28;20085;-64
2024/01/03 09:49:39;;;;;;;3.47;0.88;;;;;;;;;;5034021;28;20018;-64
2024/01/03 09:52:04;;;;;;;5.80;0.73;;;;;;;;;;5033287;28;20010;-64
2024/01/03 09:54:31;;;;;;;7.65;1.45;;;;;;;;;;5034097;28;20731;-64
2024/01/03 09:56:56;;;;;;;6.82;1.08;;;;;;;;;;5034270;28;20025;-64
2024/01/03 09:59:21;;;;;;;8.48;1.42;;;;;;;;;;5032402;28;20026;-64
2024/01/03 10:01:56;;;;;;;3.55;0.77;;;;;;;;;;5034574;28;20029;-64
2024/01/03 10:04:21;;;;;;;6.20;0.98;;;;;;;;;;5036281;28;20488;-64
2024/01/03 10:06:51;;;;;;;8.73;0.80;;;;;;;;;;5036239;28;20060;-64
2024/01/03 10:09:17;;;;;;;9.15;1.40;;;;;;;;;;5035947;28;20076;-63
2024/01/03 10:11:43;;;;;;;9.23;1.10;;;;;;;;;;5034163;28;20009;-64
2024/01/03 10:14:15;;;;;;;8.73;1.38;;;;;;;;;;5035920;28;20025;-64
2024/01/03 10:16:43;;;;;;;6.55;1.05;;;;;;;;;;5016102;28;20038;-64
2024/01/03 10:19:16;;;;;;;6.03;0.95;;;;;;;;;;5021264;28;20026;-64
2024/01/03 10:21:49;;;;;;;7.53;1.10;;;;;;;;;;5035926;28;20496;-64
2024/01/03 10:24:15;;;;;;;5.15;1.00;;;;;;;;;;5035731;28;20422;-64
2024/01/03 10:26:40;;;;;;;2.67;0.90;;;;;;;;;;5035930;28;20119;-69
2024/01/03 10:29:12;;;;;;;3.67;0.95;;;;;;;;;;5035891;28;20017;-69
2024/01/03 10:31:37;;;;;;;;;;;;;;;;;;5036220;28;20024;-69
2024/01/03 10:34:06;;;;;;;5.53;0.90;;;;;;;;;;5035631;28;19905;-69
2024/01/03 10:36:37;;;;;;;5.15;0.90;;;;;;;;;;5035658;28;20033;-69
2024/01/03 10:39:02;;;;;;;6.82;1.42;;;;;;;;;;5035506;28;20027;-69
2024/01/03 10:41:29;;;;;;;5.40;1.02;;;;;;;;;;5035487;28;20112;-69
2024/01/03 10:43:55;;;;;;;3.53;1.05;;;;;;;;;;5034114;28;20026;-69
2024/01/03 10:46:21;;;;;;;5.20;1.35;;;;;;;;;;5035419;28;20112;-69
2024/01/03 10:48:46;;;;;;;8.25;1.25;;;;;;;;;;5035445;28;20021;-69
2024/01/03 10:51:12;;;;;;;7.40;1.30;;;;;;;;;;5035308;28;20021;-69
2024/01/03 10:53:40;;;;;;;10.70;1.20;;;;;;;;;;5035614;28;20250;-69
2024/01/03 10:56:06;;;;;;;7.18;1.10;;;;;;;;;;5035215;28;20047;-69
2024/01/03 10:58:31;;;;;;;9.07;1.52;;;;;;;;;;5035222;28;20025;-69
2024/01/03 11:01:18;;;;;;;10.70;1.70;;;;;;;;;;5035224;28;20052;-69
2024/01/03 11:03:48;;;;;;;5.70;1.60;;;;;;;;;;5034813;28;20112;-69
2024/01/03 11:06:22;;;;;;;8.40;1.40;;;;;;;;;;5032553;28;20100;-69
2024/01/03 11:08:52;;;;;;;6.53;1.33;;;;;;;;;;5034884;28;20212;-69
2024/01/03 11:11:33;;;;;;;11.40;1.55;;;;;;;;;;5032835;28;20056;-69
2024/01/03 11:13:59;;;;;;;6.38;1.55;;;;;;;;;;5033838;28;20025;-69
2024/01/03 11:16:40;;;;;;;4.78;1.75;;;;;;;;;;5032146;28;20087;-69
2024/01/03 11:19:07;;;;;;;5.38;1.23;;;;;;;;;;5032530;28;20026;-69
2024/01/03 11:21:35;;;;;;;8.43;1.15;;;;;;;;;;5032391;28;20083;-69
2024/01/03 11:24:07;;;;;;;8.35;1.60;;;;;;;;;;5032476;28;20033;-69
2024/01/03 11:26:51;;;;;;;9.60;1.45;;;;;;;;;;5032808;28;20049;-69
2024/01/03 11:29:50;;;;;;;8.85;1.45;;;;;;;;;;5032974;28;20064;-69
2024/01/03 11:32:15;;;;;;;12.18;1.40;;;;;;;;;;5034849;28;20573;-69
2024/01/03 11:34:47;;;;;;;6.93;1.80;;;;;;;;;;5034467;28;20063;-69
2024/01/03 11:37:19;;;;;;;11.05;1.73;;;;;;;;;;5034843;28;20099;-64
2024/01/03 11:39:50;;;;;;;9.32;1.85;;;;;;;;;;5034397;28;20052;-64
2024/01/03 11:42:18;;;;;;;6.63;1.30;;;;;;;;;;5034469;28;20090;-64
2024/01/03 11:44:44;;;;;;;11.70;1.40;;;;;;;;;;5034137;28;20368;-64
2024/01/03 11:47:11;;;;;;;7.00;1.67;;;;;;;;;;5034521;28;20176;-64
2024/01/03 11:49:36;;;;;;;8.02;1.17;;;;;;;;;;5034204;28;20014;-64
2024/01/03 11:52:01;;;;;;;7.63;1.40;;;;;;;;;;5034202;28;20489;-64
2024/01/03 11:54:27;;;;;;;11.63;1.23;;;;;;;;;;5034126;28;20075;-64
2024/01/03 11:56:56;;;;;;;7.93;1.20;;;;;;;;;;5033611;28;20056;-64
2024/01/03 11:59:22;;;;;;;7.57;1.48;;;;;;;;;;5034128;28;20473;-64
2024/01/03 12:01:56;;;;;;;7.82;1.30;;;;;;;;;;5034032;28;20036;-64
2024/01/03 12:04:22;;;;;;;7.07;1.30;;;;;;;;;;5033960;28;20021;-64
2024/01/03 12:06:47;;;;;;;5.78;0.80;;;;;;;;;;5033850;28;20021;-64
2024/01/03 12:09:13;;;;;;;10.77;1.85;;;;;;;;;;5033936;28;20061;-64
2024/01/03 12:11:38;;;;;;;6.07;0.93;;;;;;;;;;5032599;28;20055;-64
2024/01/03 12:14:03;;;;;;;7.32;1.08;;;;;;;;;;5034120;28;20025;-64
2024/01/03 12:16:28;;;;;;;4.07;1.00;;;;;;;;;;5033615;28;20091;-64
2024/01/03 12:18:54;;;;;;;4.53;0.93;;;;;;;;;;5031861;28;20258;-64
2024/01/03 12:21:19;;;;;;;2.93;0.70;;;;;;;;;;5032536;28;20488;-64
2024/01/03 12:23:53;;;;;;;6.38;1.10;;;;;;;;;;5032984;28;20336;-64
2024/01/03 12:26:18;;;;;;;4.07;0.73;;;;;;;;;;5030980;28;20017;-64
2024/01/03 12:28:43;;;;;;;6.03;0.93;;;;;;;;;;5030563;28;20036;-64
2024/01/03 12:31:18;;;;;;;3.70;0.90;;;;;;;;;;5031218;28;20018;-64
2024/01/03 12:33:43;;;;;;;6.13;0.80;;;;;;;;;;5033317;28;20337;-64
2024/01/03 12:36:08;;;;;;;6.47;1.00;;;;;;;;;;5033115;28;20096;-64
2024/01/03 12:38:34;;;;;;;9.90;1.10;;;;;;;;;;5033157;28;20028;-64
2024/01/03 12:40:59;;;;;;;6.40;0.87;;;;;;;;;;5032479;28;20254;-64
2024/01/03 12:43:24;;;;;;;9.00;0.97;;;;;;;;;;5030458;28;20285;-64
2024/01/03 12:45:49;;;;;;;6.13;1.20;;;;;;;;;;5030750;28;20262;-69
2024/01/03 12:48:15;;;;;;;3.10;0.80;;;;;;;;;;5026224;28;20281;-69
2024/01/03 12:50:42;;;;;;;4.57;0.77;;;;;;;;;;5026533;28;20017;-69
2024/01/03 12:53:07;;;;;;;2.53;0.77;;;;;;;;;;5025889;28;20014;-67
2024/01/03 12:55:32;;;;;;;5.93;0.75;;;;;;;;;;5028514;28;20025;-68
2024/01/03 12:57:57;;;;;;;6.37;1.07;;;;;;;;;;5031364;28;20535;-69
2024/01/03 13:00:23;;;;;;;10.18;1.27;;;;;;;;;;5030930;28;20101;-69
2024/01/03 13:02:48;;;;;;;3.70;0.70;;;;;;;;;;5032346;28;20488;-69
2024/01/03 13:05:13;;;;;;;6.70;1.47;;;;;;;;;;5033020;28;20020;-68
2024/01/03 13:07:39;;;;;;;3.65;0.75;;;;;;;;;;5017721;28;20615;-69
2024/01/03 13:10:05;;;;;;;7.03;1.70;;;;;;;;;;5031825;28;20048;-69
2024/01/03 13:12:31;;;;;;;4.18;0.90;;;;;;;;;;5035301;28;20329;-69
2024/01/03 13:14:56;;;;;;;7.93;1.67;;;;;;;;;;5034953;28;20489;-69
2024/01/03 13:17:22;;;;;;;5.67;0.90;;;;;;;;;;5034394;28;20060;-68
2024/01/03 13:19:48;;;;;;;15.90;1.50;;;;;;;;;;5035232;28;20695;-69
2024/01/03 13:22:13;;;;;;;8.23;1.07;;;;;;;;;;5033621;28;20116;-69
2024/01/03 13:24:40;;;;;;;4.20;0.82;;;;;;;;;;5035095;28;20604;-69
2024/01/03 13:27:06;;;;;;;3.90;0.73;;;;;;;;;;5037379;28;20045;-69
2024/01/03 13:29:32;;;;;;;5.35;0.80;;;;;;;;;;5036900;28;20017;-69
2024/01/03 13:31:57;;;;;;;3.75;1.02;;;;;;;;;;5036829;28;20029;-69
2024/01/03 13:34:22;;;;;;;7.50;1.50;;;;;;;;;;5036825;28;20083;-69
2024/01/03 13:36:48;;;;;;;6.25;0.90;;;;;;;;;;5036797;28;20025;-69
2024/01/03 13:39:13;;;;;;;3.63;0.90;;;;;;;;;;5036718;28;20033;-69
2024/01/03 13:41:38;;;;;;;4.87;1.00;;;;;;;;;;5036980;28;20024;-69
2024/01/03 13:44:04;;;;;;;4.15;0.98;;;;;;;;;;5036826;28;20304;-69
2024/01/03 13:46:29;;;;;;;4.30;0.90;;;;;;;;;;5036602;28;20091;-69
2024/01/03 13:48:55;;;;;;;2.33;0.67;;;;;;;;;;5036578;28;20020;-69
2024/01/03 13:51:21;;;;;;;4.78;0.88;;;;;;;;;;5036744;28;20723;-69
2024/01/03 13:53:47;;;;;;;2.90;0.60;;;;;;;;;;5036666;28;20385;-69
2024/01/03 13:56:12;;;;;;;1.70;0.52;;;;;;;;;;5034203;28;20023;-69
2024/01/03 13:58:38;;;;;;;3.15;0.85;;;;;;;;;;5034903;28;20035;-69
2024/01/03 14:01:04;;;;;;;1.42;0.60;;;;;;;;;;5035892;28;20424;-69
2024/01/03 14:03:29;;;;;;;4.50;0.73;;;;;;;;;;5034634;28;20477;-69
2024/01/03 14:05:54;;;;;;;3.80;0.93;;;;;;;;;;5036424;28;20064;-69
2024/01/03 14:08:21;;;;;;;3.92;0.70;;;;;;;;;;5035255;28;20541;-69
2024/01/03 14:10:46;;;;;;;2.47;0.80;;;;;;;;;;5034061;28;20100;-69
2024/01/03 14:13:12;;;;;;;5.63;0.83;;;;;;;;;;5032500;28;20129;-69
2024/01/03 14:15:37;;;;;;;6.00;0.80;;;;;;;;;;5033617;28;20278;-69
2024/01/03 14:18:04;;;;;;;3.67;0.88;;;;;;;;;;5033564;28;20262;-69
2024/01/03 14:20:29;;;;;;;5.47;0.90;;;;;;;;;;5032612;28;20025;-69
2024/01/03 14:22:56;;;;;;;8.73;1.35;;;;;;;;;;5033817;28;20029;-69
2024/01/03 14:25:21;;;;;;;2.20;0.98;;;;;;;;;;5035921;28;20458;-69
2024/01/03 14:27:48;;;;;;;6.13;0.80;;;;;;;;;;5035818;28;20029;-69
2024/01/03 14:30:15;;;;;;;1.90;0.80;;;;;;;;;;5035590;28;20075;-69
2024/01/03 14:32:42;;;;;;;1.67;0.70;;;;;;;;;;5035853;28;20021;-69
2024/01/03 14:35:07;;;;;;;8.35;1.30;;;;;;;;;;5035688;28;20022;-69
2024/01/03 14:37:32;;;;;;;10.98;1.38;;;;;;;;;;5035694;28;20030;-69